• Join FlightAware (Why Join?)
  • Login
  • US Flag 
10:16PM EST


 

Airport Tracker/Info


-or-


 

Live Flight TrackerFlight Track Log ✈ DAL1981 ✈ 25-Apr-2013 ✈ KALB - KATL

Flight Track Log - Related Links

Times and Time Zones

All times are in EDT time to prevent confusion due to time zone crossing. See the DAL1981 flight status page for this flight to view local times or setup timezone preferences in your user account.

Time Position Orientation Groundspeed Altitude Reporting Facility
EDT Latitude Longitude Course Direction KTS MPH feet Rate Location/Type
06:14AM 42.7672 -73.8061 180° South 167 192 1,300  Level Boston Center
06:16AM 42.8275 -73.8358 340° North 221 254 3,800 3,000 Climbing Boston Center
06:17AM 42.5469 -74.0849 180° South  Level Estimated
06:17AM 42.8683 -73.9075 308° West 241 277 7,800  Level Boston Center
06:18AM 42.4793 -74.1788 200° South  Level Estimated
06:18AM 42.8775 -73.9900 279° West 246 283 9,900  Level Boston Center
06:19AM 42.4117 -74.2725 198° South  Level Estimated
06:19AM 42.8553 -74.0942 254° West 260 299 12,600  Level Boston Center
06:20AM 42.3439 -74.3661 180° South  Level Estimated
06:20AM 42.7842 -74.1008 184° South 232 267 16,000  Level Boston Center
06:21AM 42.6864 -74.0897 175° South 259 298 18,000 2,160 Climbing Boston Center
06:22AM 42.5947 -74.0844 178° South 318 366 20,400 1,920 Climbing Boston Center
06:23AM 42.5011 -74.0733 175° South 331 381 21,900 1,200 Climbing Boston Center
06:24AM 42.3992 -74.0622 175° South 351 404 22,800 1,020 Climbing Boston Center
06:25AM 42.2889 -74.0483 175° South 378 435 24,000 1,560 Climbing Boston Center
06:26AM 42.1786 -74.0456 179° South 395 455 26,000 1,980 Climbing Boston Center
06:27AM 42.0742 -74.0511 182° South 395 455 28,000 1,620 Climbing Boston Center
06:28AM 41.9742 -74.0542 181° South 383 441 29,300 1,320 Climbing Boston Center
06:29AM 41.8739 -74.0600 182° South 373 429 30,700 960 Climbing Boston Center
06:30AM 41.7864 -74.0661 183° South 357 411 31,300 660 Climbing Boston Center
06:31AM 41.6919 -74.1081 198° South 350 403 32,100 720 Climbing Boston Center
06:32AM 41.5444 -74.2136 208° Southwest 341 392 33,400 660 Climbing New York Center
06:33AM 41.4594 -74.2728 208° Southwest 341 392 34,000 300 Climbing New York Center
06:34AM 41.3744 -74.3292 206° Southwest 341 392 34,000  Level New York Center
06:35AM 41.2875 -74.3853 206° Southwest 346 398 34,000  Level New York Center
06:36AM 41.2067 -74.4417 208° Southwest 346 398 34,000  Level New York Center
06:37AM 41.1217 -74.4947 205° Southwest 346 398 34,000  Level New York Center
06:38AM 41.0444 -74.5675 215° Southwest 346 398 34,000  Level New York Center
06:39AM 40.9750 -74.6489 222° Southwest 341 392 34,000  Level New York Center
06:40AM 40.9075 -74.7331 223° Southwest 341 392 34,000  Level New York Center
06:41AM 40.8381 -74.8194 223° Southwest 336 387 34,000  Level New York Center
06:42AM 40.7706 -74.9003 222° Southwest 336 387 34,000  Level New York Center
06:43AM 40.7031 -74.9839 223° Southwest 336 387 34,000  Level New York Center
06:44AM 40.6333 -75.0672 222° Southwest 336 387 34,000  Level New York Center
06:45AM 40.5678 -75.1531 225° Southwest 336 387 34,000  Level New York Center
06:46AM 40.4981 -75.2333 221° Southwest 336 387 34,000  Level New York Center
06:47AM 40.4303 -75.3161 223° Southwest 336 387 34,000  Level New York Center
06:48AM 40.3603 -75.3986 222° Southwest 336 387 34,000  Level New York Center
06:49AM 40.2925 -75.4814 223° Southwest 336 387 34,000  Level New York Center
06:50AM 40.2247 -75.5636 223° Southwest 330 380 34,000  Level New York Center
06:51AM 40.1747 -75.6608 236° Southwest 330 380 34,000  Level New York Center
06:52AM 40.1244 -75.7658 238° Southwest 337 388 34,000  Level New York Center
06:53AM 40.0722 -75.8678 236° Southwest 343 395 34,000  Level New York Center
06:54AM 40.0175 -75.9750 236° Southwest 343 395 34,000  Level New York Center
06:55AM 39.9650 -76.0767 236° Southwest 349 402 34,000  Level New York Center
06:56AM 39.9144 -76.1783 237° Southwest 349 402 34,000  Level New York Center
06:57AM 39.8511 -76.2872 233° Southwest 361 415 34,000  Level New York Center
06:59AM 39.7919 -76.4150 239° Southwest 358 412 34,000  Level Washington Center
07:00AM 39.7350 -76.5250 236° Southwest 358 412 34,000  Level Washington Center
07:01AM 39.6758 -76.6267 233° Southwest 363 418 34,000  Level Washington Center
07:02AM 39.6186 -76.7336 235° Southwest 363 418 34,000  Level Washington Center
07:03AM 39.5656 -76.8406 237° Southwest 363 418 34,000  Level Washington Center
07:04AM 39.5081 -76.9472 235° Southwest 363 418 34,000  Level Washington Center
07:05AM 39.4383 -77.0372 225° Southwest 363 418 34,000  Level Washington Center
07:06AM 39.3581 -77.1214 219° Southwest 363 418 34,000  Level Washington Center
07:07AM 39.2797 -77.2058 220° Southwest 370 426 34,000  Level Washington Center
07:08AM 39.1953 -77.2922 218° Southwest 382 440 34,000  Level Washington Center
07:09AM 39.1169 -77.3761 220° Southwest 382 440 34,000  Level Washington Center
07:10AM 39.0344 -77.4594 218° Southwest 382 440 34,000  Level Washington Center
07:11AM 38.9475 -77.5533 220° Southwest 382 440 34,000  Level Washington Center
07:12AM 38.8647 -77.6339 217° Southwest 382 440 34,000  Level Washington Center
07:13AM 38.7861 -77.7169 219° Southwest 382 440 34,000  Level Washington Center
07:14AM 38.7033 -77.7997 218° Southwest 382 440 34,000  Level Washington Center
07:15AM 38.6267 -77.8850 221° Southwest 377 434 34,000  Level Washington Center
07:16AM 38.5706 -77.9842 234° Southwest 362 417 34,000  Level Washington Center
07:17AM 38.5122 -78.0858 234° Southwest 357 411 34,000  Level Washington Center
07:18AM 38.4539 -78.1819 232° Southwest 357 411 34,000  Level Washington Center
07:19AM 38.3975 -78.2806 234° Southwest 357 411 34,000  Level Washington Center
07:20AM 38.3389 -78.3792 233° Southwest 357 411 34,000  Level Washington Center
07:21AM 38.2803 -78.4775 233° Southwest 357 411 34,000  Level Washington Center
07:22AM 38.2303 -78.5681 235° Southwest 357 411 34,000  Level Washington Center
07:23AM 38.1669 -78.6739 233° Southwest 352 405 34,000  Level Washington Center
07:24AM 38.1061 -78.7742 232° Southwest 352 405 34,000  Level Washington Center
07:25AM 38.0450 -78.8744 232° Southwest 352 405 34,000  Level Washington Center
07:26AM 37.9858 -78.9719 232° Southwest 352 405 34,000  Level Washington Center
07:27AM 37.9311 -79.0617 232° Southwest 358 412 34,000  Level Washington Center
07:28AM 37.8678 -79.1589 230° Southwest 363 418 34,000  Level Washington Center
07:29AM 37.7983 -79.2553 228° Southwest 369 425 34,000  Level Washington Center
07:30AM 37.7286 -79.3492 227° Southwest 374 430 34,000  Level Washington Center
07:31AM 37.6522 -79.4528 227° Southwest 374 430 34,000  Level Washington Center
07:32AM 37.5892 -79.5361 226° Southwest 374 430 34,000  Level Washington Center
07:33AM 37.5147 -79.6397 228° Southwest 374 430 34,000  Level Washington Center
07:34AM 37.4533 -79.7281 229° Southwest 374 430 34,000  Level Washington Center
07:35AM 37.3722 -79.8386 227° Southwest 380 437 34,000  Level Washington Center
07:36AM 37.2411 -80.0111 226° Southwest 362 417 34,000  Level Atlanta Center
07:37AM 37.1772 -80.0978 227° Southwest 368 423 34,000  Level Atlanta Center
07:38AM 37.1075 -80.1922 227° Southwest 375 432 34,000  Level Atlanta Center
07:39AM 37.0372 -80.2867 227° Southwest 380 437 34,000  Level Atlanta Center
07:40AM 36.9653 -80.3836 227° Southwest 380 437 34,000  Level Atlanta Center
07:41AM 36.8889 -80.4858 227° Southwest 380 437 34,000  Level Atlanta Center
07:42AM 36.8167 -80.5825 227° Southwest 380 437 34,000  Level Atlanta Center
07:43AM 36.7583 -80.6600 227° Southwest 380 437 34,000  Level Atlanta Center
07:44AM 36.6819 -80.7617 227° Southwest 375 432 34,000  Level Atlanta Center
07:45AM 36.6114 -80.8550 227° Southwest 380 437 34,000  Level Atlanta Center
07:46AM 36.5386 -80.9483 226° Southwest 380 437 34,000  Level Atlanta Center
07:47AM 36.4681 -81.0442 228° Southwest 380 437 34,000  Level Atlanta Center
07:48AM 36.3914 -81.1475 227° Southwest 380 437 34,000  Level Atlanta Center
07:49AM 36.3203 -81.2378 226° Southwest 375 432 34,000  Level Atlanta Center
07:50AM 36.2536 -81.3275 227° Southwest 365 420 34,000  Level Atlanta Center
07:51AM 36.1867 -81.4197 228° Southwest 360 414 34,000  Level Atlanta Center
07:52AM 36.1156 -81.5069 225° Southwest 355 409 34,000  Level Atlanta Center
07:53AM 36.0486 -81.5939 226° Southwest 355 409 34,000  Level Atlanta Center
07:54AM 35.9772 -81.6883 227° Southwest 355 409 34,000  Level Atlanta Center
07:55AM 35.9103 -81.7750 226° Southwest 350 403 34,000  Level Atlanta Center
07:56AM 35.8408 -81.8664 227° Southwest 355 409 34,000  Level Atlanta Center
07:57AM 35.7694 -81.9528 224° Southwest 355 409 34,000  Level Atlanta Center
07:58AM 35.7019 -82.0442 228° Southwest 355 409 34,000  Level Atlanta Center
07:59AM 35.6325 -82.1328 226° Southwest 360 414 34,000 -60 Level Atlanta Center
08:00AM 35.5628 -82.2186 225° Southwest 360 414 33,900 -900 Descending Atlanta Center
08:01AM 35.4933 -82.3094 227° Southwest 355 409 32,200 -960 Descending Atlanta Center
08:02AM 35.4297 -82.3872 225° Southwest 355 409 32,000 -120 Descending Atlanta Center
08:03AM 35.3578 -82.4803 227° Southwest 361 415 32,000  Level Atlanta Center
08:04AM 35.2881 -82.5681 226° Southwest 361 415 32,000  Level Atlanta Center
08:05AM 35.2158 -82.6533 224° Southwest 361 415 32,000  Level Atlanta Center
08:06AM 35.1439 -82.7433 226° Southwest 361 415 32,000  Level Atlanta Center
08:07AM 35.0719 -82.8333 226° Southwest 361 415 32,000 -120 Level Atlanta Center
08:08AM 34.9997 -82.9231 226° Southwest 361 415 31,800 -960 Descending Atlanta Center
08:09AM 34.9294 -83.0050 224° Southwest 361 415 30,100 -1,920 Descending Atlanta Center
08:10AM 34.8611 -83.0894 225° Southwest 350 403 28,000 -1,740 Descending Atlanta Center
08:11AM 34.7972 -83.1686 226° Southwest 341 392 26,700 -1,800 Descending Atlanta Center
08:12AM 34.7308 -83.2528 226° Southwest 325 374 24,500 -1,380 Descending Atlanta Center
08:13AM 34.6667 -83.3267 223° Southwest 318 366 24,000 -300 Descending Atlanta Center
08:14AM 34.5897 -83.3928 215° Southwest 332 382 24,000  Level Atlanta Center
08:15AM 34.5172 -83.4589 217° Southwest 338 389 24,000  Level Atlanta Center
08:16AM 34.4422 -83.5275 217° Southwest 338 389 24,000 -780 Level Atlanta Center
08:17AM 34.3675 -83.5933 216° Southwest 338 389 22,500 -2,160 Descending Atlanta Center
08:18AM 34.2944 -83.6567 216° Southwest 333 383 19,700 -2,700 Descending Atlanta Center
08:19AM 34.2239 -83.7197 216° Southwest 325 374 17,100 -2,580 Descending Atlanta Center
08:20AM 34.1572 -83.7828 218° Southwest 314 361 14,600 -2,340 Descending Atlanta Center
08:21AM 34.0989 -83.8331 216° Southwest 301 346 12,500 -1,680 Descending Atlanta Center
08:22AM 34.0425 -83.8908 220° Southwest 284 327 11,300 -1,500 Descending Atlanta Center
08:23AM 33.9861 -83.9536 223° Southwest 272 313 9,500 -1,200 Descending Atlanta Center
08:24AM 33.9133 -83.9661 188° South 260 299 9,000 -300 Descending Atlanta Center
08:25AM 33.8339 -83.9614 177° South 279 321 9,000  Level Atlanta Center
08:26AM 33.7483 -83.9589 179° South 279 321 9,000 -900 Level Atlanta Center
08:27AM 33.6711 -83.9614 182° South 286 329 7,200 -1,020 Descending Atlanta Center
08:28AM 33.6314 -84.0164 229° Southwest 236 272 7,000 -660 Descending Atlanta Center
08:30AM 33.6333 -84.1500 271° West 210 242 5,200 -900 Descending Atlanta TRACON
08:31AM 33.6333 -84.2167 270° West 175 201 4,400 -960 Descending Atlanta TRACON
08:33AM 33.6333 -84.2833 270° West 164 189 3,300 -1,020 Descending Atlanta TRACON